Time;durP1;ratioP1;P1;durP2;ratioP2;P2;SDS_P1;SDS_P2;PMS_P1;PMS_P2;Temp;Humidity;BMP_temperature;BMP_pressure;BME280_temperature;BME280_humidity;BME280_pressure;Samples;Min_cycle;Max_cycle;Signal;HPM_P1;HPM_P2
2020/12/21 00:00:24;;;;;;;3.88;3.50;;;;;;;;;;2064114;28;20022;-72
2020/12/21 00:01:50;;;;;;;3.40;3.10;;;;;;;;;;2065299;28;20035;-72
2020/12/21 00:03:09;;;;;;;3.47;3.22;;;;;;;;;;2058594;28;20038;-72
2020/12/21 00:04:28;;;;;;;5.45;3.80;;;;;;;;;;2061363;28;20034;-73
2020/12/21 00:05:47;;;;;;;3.83;3.53;;;;;;;;;;2065677;28;20434;-72
2020/12/21 00:07:06;;;;;;;5.35;3.33;;;;;;;;;;2064645;28;20038;-72
2020/12/21 00:08:25;;;;;;;3.83;3.53;;;;;;;;;;2060218;28;20035;-73
2020/12/21 00:09:44;;;;;;;4.80;4.13;;;;;;;;;;2059817;28;20031;-73
2020/12/21 00:11:03;;;;;;;4.20;3.83;;;;;;;;;;2063667;28;20099;-72
2020/12/21 00:12:22;;;;;;;4.28;3.88;;;;;;;;;;2065068;28;20023;-72
2020/12/21 00:13:44;;;;;;;4.68;4.28;;;;;;;;;;2063481;28;20026;-72
2020/12/21 00:15:06;;;;;;;4.78;4.32;;;;;;;;;;2064165;28;20030;-72
2020/12/21 00:16:25;;;;;;;4.63;4.00;;;;;;;;;;2069856;28;20498;-72
2020/12/21 00:17:44;;;;;;;4.88;3.67;;;;;;;;;;2065842;28;20065;-73
2020/12/21 00:19:03;;;;;;;4.75;4.20;;;;;;;;;;2065050;28;20023;-72
2020/12/21 00:20:22;;;;;;;6.55;4.68;;;;;;;;;;2064137;28;20026;-73
2020/12/21 00:21:41;;;;;;;4.57;4.18;;;;;;;;;;2064733;28;20483;-73
2020/12/21 00:23:00;;;;;;;5.57;4.05;;;;;;;;;;2064384;28;20123;-73
2020/12/21 00:24:19;;;;;;;4.60;4.20;;;;;;;;;;2061386;28;20038;-74
2020/12/21 00:25:38;;;;;;;4.25;3.85;;;;;;;;;;2063009;28;20038;-73
2020/12/21 00:26:57;;;;;;;5.10;4.07;;;;;;;;;;2065135;28;20109;-74
2020/12/21 00:28:16;;;;;;;4.55;4.15;;;;;;;;;;2063997;28;20027;-74
2020/12/21 00:29:35;;;;;;;4.78;3.63;;;;;;;;;;2062854;28;20026;-74
2020/12/21 00:30:54;;;;;;;5.47;4.22;;;;;;;;;;2063795;28;20022;-74
2020/12/21 00:32:13;;;;;;;5.38;4.18;;;;;;;;;;2064338;28;20019;-73
2020/12/21 00:33:32;;;;;;;4.35;3.92;;;;;;;;;;2062903;28;20026;-75
2020/12/21 00:34:51;;;;;;;4.07;3.72;;;;;;;;;;2064559;28;20038;-74
2020/12/21 00:36:09;;;;;;;4.22;3.90;;;;;;;;;;2060333;28;20520;-73
2020/12/21 00:37:28;;;;;;;4.18;3.78;;;;;;;;;;2064039;28;20478;-74
2020/12/21 00:38:48;;;;;;;4.00;3.70;;;;;;;;;;2065812;28;20030;-75
2020/12/21 00:40:07;;;;;;;5.35;4.13;;;;;;;;;;2062240;28;20026;-74
2020/12/21 00:41:26;;;;;;;4.20;3.80;;;;;;;;;;2062548;28;20022;-73
2020/12/21 00:42:45;;;;;;;4.10;3.70;;;;;;;;;;2060644;28;20038;-75
2020/12/21 00:44:05;;;;;;;4.50;3.95;;;;;;;;;;2064421;28;20022;-74
2020/12/21 00:45:24;;;;;;;4.25;3.85;;;;;;;;;;2062194;28;20046;-74
2020/12/21 00:46:43;;;;;;;5.35;3.83;;;;;;;;;;2060166;28;20027;-74
2020/12/21 00:48:02;;;;;;;4.90;4.40;;;;;;;;;;2063683;28;20030;-74
2020/12/21 00:49:20;;;;;;;4.88;3.83;;;;;;;;;;2061628;28;20026;-72
2020/12/21 00:50:39;;;;;;;5.63;3.65;;;;;;;;;;2059169;28;20274;-74
2020/12/21 00:51:58;;;;;;;4.05;3.55;;;;;;;;;;2059791;28;20039;-75
2020/12/21 00:53:17;;;;;;;4.40;4.00;;;;;;;;;;2062156;28;20027;-74
2020/12/21 00:54:36;;;;;;;5.00;4.13;;;;;;;;;;2063706;28;20046;-74
2020/12/21 00:55:54;;;;;;;4.22;3.83;;;;;;;;;;2065185;28;20022;-74
2020/12/21 00:57:13;;;;;;;4.93;4.13;;;;;;;;;;2064553;28;20370;-73
2020/12/21 00:58:33;;;;;;;6.28;4.22;;;;;;;;;;2062556;28;20026;-74
2020/12/21 00:59:51;;;;;;;5.13;4.72;;;;;;;;;;2064831;28;20018;-75
2020/12/21 01:01:21;;;;;;;6.68;4.82;;;;;;;;;;2062886;28;20022;-75
2020/12/21 01:02:40;;;;;;;4.95;3.97;;;;;;;;;;2059512;28;20027;-75
2020/12/21 01:04:00;;;;;;;4.80;4.35;;;;;;;;;;2064196;28;20026;-74
2020/12/21 01:05:19;;;;;;;5.43;4.38;;;;;;;;;;2064260;28;20018;-75
2020/12/21 01:06:38;;;;;;;5.07;4.68;;;;;;;;;;2060161;28;20023;-75
2020/12/21 01:07:57;;;;;;;6.90;4.93;;;;;;;;;;2064706;28;20445;-75
2020/12/21 01:09:15;;;;;;;5.05;4.55;;;;;;;;;;2060676;28;20022;-75
2020/12/21 01:10:34;;;;;;;5.03;4.57;;;;;;;;;;2064585;28;20475;-74
2020/12/21 01:11:53;;;;;;;6.50;4.57;;;;;;;;;;2065652;28;20038;-74
2020/12/21 01:13:12;;;;;;;5.57;5.07;;;;;;;;;;2063287;28;20019;-75
2020/12/21 01:14:31;;;;;;;7.15;4.72;;;;;;;;;;2062862;28;20394;-75
2020/12/21 01:15:50;;;;;;;5.07;4.60;;;;;;;;;;2064258;28;20109;-72
2020/12/21 01:17:10;;;;;;;5.43;4.90;;;;;;;;;;2064336;28;20050;-73
2020/12/21 01:18:28;;;;;;;6.13;4.95;;;;;;;;;;2063788;28;20027;-73
2020/12/21 01:19:47;;;;;;;4.80;4.30;;;;;;;;;;2064467;28;20101;-73
2020/12/21 01:21:06;;;;;;;6.35;5.13;;;;;;;;;;2064000;28;20026;-72
2020/12/21 01:22:25;;;;;;;6.10;5.30;;;;;;;;;;2062776;28;20030;-73
2020/12/21 01:23:44;;;;;;;5.80;4.82;;;;;;;;;;2065008;28;20031;-73
2020/12/21 01:25:03;;;;;;;7.30;5.05;;;;;;;;;;2065341;28;20482;-73
2020/12/21 01:26:22;;;;;;;5.68;5.05;;;;;;;;;;2061932;28;20490;-74
2020/12/21 01:27:41;;;;;;;6.90;5.00;;;;;;;;;;2062082;28;20058;-73
2020/12/21 01:29:00;;;;;;;6.78;4.82;;;;;;;;;;2062852;28;20026;-73
2020/12/21 01:30:19;;;;;;;5.72;4.70;;;;;;;;;;2062897;28;20059;-75
2020/12/21 01:31:38;;;;;;;5.13;4.70;;;;;;;;;;2063284;28;20034;-74
2020/12/21 01:32:57;;;;;;;5.78;4.47;;;;;;;;;;2061140;28;20459;-73
2020/12/21 01:34:16;;;;;;;4.93;4.53;;;;;;;;;;2062241;28;20022;-73
2020/12/21 01:35:35;;;;;;;5.53;5.00;;;;;;;;;;2065261;28;20018;-73
2020/12/21 01:36:54;;;;;;;5.80;5.05;;;;;;;;;;2060754;28;20495;-74
2020/12/21 01:38:13;;;;;;;5.65;5.15;;;;;;;;;;2061471;28;20034;-72
2020/12/21 01:39:32;;;;;;;8.30;5.22;;;;;;;;;;2064867;28;20018;-73
2020/12/21 01:40:50;;;;;;;5.40;4.90;;;;;;;;;;2064607;28;20035;-74
2020/12/21 01:42:09;;;;;;;5.15;4.53;;;;;;;;;;2062184;28;20030;-73
2020/12/21 01:43:28;;;;;;;7.35;4.53;;;;;;;;;;2060049;28;20442;-74
2020/12/21 01:44:48;;;;;;;5.88;5.28;;;;;;;;;;2063802;28;20410;-73
2020/12/21 01:46:12;;;;;;;4.85;4.43;;;;;;;;;;2062368;28;20034;-74
2020/12/21 01:47:31;;;;;;;5.93;4.60;;;;;;;;;;2059671;28;20122;-73
2020/12/21 01:48:50;;;;;;;5.00;4.60;;;;;;;;;;2061248;28;20026;-74
2020/12/21 01:50:10;;;;;;;5.05;4.60;;;;;;;;;;2060365;28;20494;-73
2020/12/21 01:51:29;;;;;;;5.45;4.70;;;;;;;;;;2062781;28;20034;-73
2020/12/21 01:52:47;;;;;;;6.18;4.57;;;;;;;;;;2061364;28;20517;-73
2020/12/21 01:54:07;;;;;;;4.43;4.03;;;;;;;;;;2062055;28;20035;-73
2020/12/21 01:55:26;;;;;;;5.00;4.50;;;;;;;;;;2064250;28;20023;-74
2020/12/21 01:56:47;;;;;;;4.97;4.57;;;;;;;;;;2062867;28;20030;-73
2020/12/21 01:58:07;;;;;;;5.57;4.60;;;;;;;;;;2057238;28;20027;-73
2020/12/21 01:59:26;;;;;;;4.53;4.13;;;;;;;;;;2058912;28;20101;-72
2020/12/21 02:00:45;;;;;;;4.85;4.45;;;;;;;;;;2063799;28;20089;-74
2020/12/21 02:02:04;;;;;;;4.78;4.28;;;;;;;;;;2057027;28;20035;-73
2020/12/21 02:03:22;;;;;;;7.28;5.03;;;;;;;;;;2060958;28;20069;-74
2020/12/21 02:04:41;;;;;;;5.50;4.53;;;;;;;;;;2059840;28;20027;-73
2020/12/21 02:06:00;;;;;;;5.05;4.45;;;;;;;;;;2059939;28;20026;-73
2020/12/21 02:07:20;;;;;;;4.75;4.22;;;;;;;;;;2059867;28;20043;-73
2020/12/21 02:08:39;;;;;;;5.20;4.68;;;;;;;;;;2058180;28;20046;-73
2020/12/21 02:09:58;;;;;;;6.78;4.68;;;;;;;;;;2060763;28;20027;-73
2020/12/21 02:11:18;;;;;;;5.47;4.85;;;;;;;;;;2061308;28;20027;-73
2020/12/21 02:12:37;;;;;;;5.10;4.43;;;;;;;;;;2062998;28;20031;-74
2020/12/21 02:13:56;;;;;;;6.25;4.78;;;;;;;;;;2064087;28;20026;-74
2020/12/21 02:15:14;;;;;;;5.18;4.70;;;;;;;;;;2061429;28;20022;-72
2020/12/21 02:16:34;;;;;;;6.00;4.75;;;;;;;;;;2063706;28;20014;-73
2020/12/21 02:17:53;;;;;;;5.10;4.60;;;;;;;;;;2064488;28;20030;-73
2020/12/21 02:19:12;;;;;;;5.15;4.57;;;;;;;;;;2063916;28;20054;-74
2020/12/21 02:20:32;;;;;;;4.30;3.90;;;;;;;;;;2058922;28;20105;-73
2020/12/21 02:21:51;;;;;;;4.85;4.45;;;;;;;;;;2063830;28;20081;-73
2020/12/21 02:23:09;;;;;;;6.25;4.70;;;;;;;;;;2061333;28;20034;-74
2020/12/21 02:24:28;;;;;;;5.18;4.15;;;;;;;;;;2062627;28;20061;-73
2020/12/21 02:25:47;;;;;;;5.53;4.38;;;;;;;;;;2063653;28;20074;-73
2020/12/21 02:27:06;;;;;;;4.72;4.32;;;;;;;;;;2060597;28;20046;-74
2020/12/21 02:28:25;;;;;;;6.30;4.60;;;;;;;;;;2062489;28;20471;-73
2020/12/21 02:29:44;;;;;;;4.72;4.32;;;;;;;;;;2064628;28;20121;-73
2020/12/21 02:31:03;;;;;;;5.95;4.10;;;;;;;;;;2063044;28;20026;-74
2020/12/21 02:32:22;;;;;;;5.22;4.45;;;;;;;;;;2063008;28;20097;-74
2020/12/21 02:33:41;;;;;;;5.00;4.22;;;;;;;;;;2064423;28;20490;-74
2020/12/21 02:35:00;;;;;;;4.15;3.85;;;;;;;;;;2064844;28;20034;-74
2020/12/21 02:36:19;;;;;;;4.47;4.00;;;;;;;;;;2064174;28;20390;-73
2020/12/21 02:37:38;;;;;;;4.53;4.10;;;;;;;;;;2059673;28;20027;-73
2020/12/21 02:38:57;;;;;;;6.38;4.80;;;;;;;;;;2062479;28;20026;-73
2020/12/21 02:40:16;;;;;;;4.72;4.25;;;;;;;;;;2064170;28;20022;-73
2020/12/21 02:41:35;;;;;;;5.07;4.30;;;;;;;;;;2061576;28;20046;-73
2020/12/21 02:42:54;;;;;;;7.50;4.47;;;;;;;;;;2061139;28;20035;-73
2020/12/21 02:44:13;;;;;;;4.57;4.20;;;;;;;;;;2061480;28;20034;-73
2020/12/21 02:45:31;;;;;;;4.38;3.97;;;;;;;;;;2057456;28;20034;-73
2020/12/21 02:46:50;;;;;;;4.45;4.05;;;;;;;;;;2061770;28;20039;-73
2020/12/21 02:48:10;;;;;;;6.10;4.72;;;;;;;;;;2060629;28;20433;-74
2020/12/21 02:49:29;;;;;;;5.00;4.03;;;;;;;;;;2063741;28;20034;-73
2020/12/21 02:50:48;;;;;;;4.28;3.88;;;;;;;;;;2059010;28;20039;-73
2020/12/21 02:52:07;;;;;;;4.88;3.97;;;;;;;;;;2061575;28;20034;-74
2020/12/21 02:53:26;;;;;;;5.47;4.80;;;;;;;;;;2059826;28;20022;-73
2020/12/21 02:54:48;;;;;;;5.88;3.83;;;;;;;;;;2063347;28;20030;-74
2020/12/21 02:56:07;;;;;;;4.55;4.15;;;;;;;;;;2063291;28;20030;-73
2020/12/21 02:57:26;;;;;;;5.40;4.90;;;;;;;;;;2061707;28;20492;-74
2020/12/21 02:58:45;;;;;;;4.68;4.22;;;;;;;;;;2060235;28;20030;-73
2020/12/21 03:00:08;;;;;;;4.38;3.97;;;;;;;;;;2061950;28;20404;-74
2020/12/21 03:01:27;;;;;;;5.18;4.55;;;;;;;;;;2063477;28;20058;-74
2020/12/21 03:02:46;;;;;;;5.10;3.60;;;;;;;;;;2061665;28;20030;-74
2020/12/21 03:04:04;;;;;;;4.18;3.78;;;;;;;;;;2060168;28;20483;-72
2020/12/21 03:05:23;;;;;;;4.78;4.38;;;;;;;;;;2060915;28;20066;-73
2020/12/21 03:06:42;;;;;;;6.40;4.60;;;;;;;;;;2064969;28;20026;-73
2020/12/21 03:08:03;;;;;;;5.88;4.32;;;;;;;;;;2062967;28;20117;-73
2020/12/21 03:09:22;;;;;;;3.97;3.55;;;;;;;;;;2063889;28;20031;-72
2020/12/21 03:10:41;;;;;;;5.38;4.07;;;;;;;;;;2064808;28;20026;-73
2020/12/21 03:12:00;;;;;;;4.80;4.05;;;;;;;;;;2064983;28;20026;-73
2020/12/21 03:13:19;;;;;;;4.15;3.78;;;;;;;;;;2065724;28;20026;-72
2020/12/21 03:14:37;;;;;;;4.47;4.07;;;;;;;;;;2060686;28;20034;-73
2020/12/21 03:15:56;;;;;;;4.32;3.92;;;;;;;;;;2066682;28;20026;-72
2020/12/21 03:17:15;;;;;;;4.53;4.13;;;;;;;;;;2063790;28;20026;-72
2020/12/21 03:18:34;;;;;;;5.50;4.20;;;;;;;;;;2064244;28;20023;-72
2020/12/21 03:19:53;;;;;;;4.45;4.05;;;;;;;;;;2064943;28;20111;-73
2020/12/21 03:21:12;;;;;;;4.60;4.18;;;;;;;;;;2062313;28;20018;-73
2020/12/21 03:22:30;;;;;;;4.60;4.20;;;;;;;;;;2064774;28;20026;-72
2020/12/21 03:23:49;;;;;;;5.57;4.90;;;;;;;;;;2061348;28;20026;-72
2020/12/21 03:25:08;;;;;;;4.97;4.57;;;;;;;;;;2065346;28;20027;-72
2020/12/21 03:26:27;;;;;;;5.07;4.50;;;;;;;;;;2063681;28;20034;-72
2020/12/21 03:27:46;;;;;;;4.95;4.45;;;;;;;;;;2063921;28;20047;-72
2020/12/21 03:29:05;;;;;;;5.40;4.55;;;;;;;;;;2063647;28;20058;-72
2020/12/21 03:30:25;;;;;;;4.57;4.18;;;;;;;;;;2066485;28;20030;-73
2020/12/21 03:31:44;;;;;;;6.30;4.97;;;;;;;;;;2064704;28;20026;-72
2020/12/21 03:33:03;;;;;;;5.35;4.85;;;;;;;;;;2064639;28;20018;-72
2020/12/21 03:34:21;;;;;;;6.20;5.60;;;;;;;;;;2055958;28;20054;-73
2020/12/21 03:35:40;;;;;;;7.63;5.85;;;;;;;;;;2056464;28;20034;-73
2020/12/21 03:36:59;;;;;;;5.88;5.38;;;;;;;;;;2063264;28;20022;-73
2020/12/21 03:38:18;;;;;;;7.28;5.40;;;;;;;;;;2064302;28;20030;-73
2020/12/21 03:39:37;;;;;;;7.80;5.43;;;;;;;;;;2062378;28;20117;-73
2020/12/21 03:40:56;;;;;;;6.60;6.00;;;;;;;;;;2063453;28;20030;-73
2020/12/21 03:42:14;;;;;;;5.57;5.07;;;;;;;;;;2065344;28;20391;-73
2020/12/21 03:43:33;;;;;;;6.32;5.72;;;;;;;;;;2063545;28;20035;-73
2020/12/21 03:44:52;;;;;;;6.63;6.03;;;;;;;;;;2063105;28;20030;-73
2020/12/21 03:46:11;;;;;;;7.93;5.75;;;;;;;;;;2063308;28;20066;-73
2020/12/21 03:47:30;;;;;;;5.75;5.15;;;;;;;;;;2061876;28;20026;-73
2020/12/21 03:48:49;;;;;;;7.03;5.80;;;;;;;;;;2064568;28;20054;-73
2020/12/21 03:50:07;;;;;;;8.07;5.00;;;;;;;;;;2064505;28;20030;-73
2020/12/21 03:51:26;;;;;;;7.60;5.75;;;;;;;;;;2064166;28;20038;-73
2020/12/21 03:52:45;;;;;;;7.07;5.35;;;;;;;;;;2064732;28;20030;-73
2020/12/21 03:54:04;;;;;;;7.30;5.90;;;;;;;;;;2066517;28;20034;-73
2020/12/21 03:55:23;;;;;;;7.15;5.68;;;;;;;;;;2064634;28;20038;-73
2020/12/21 03:56:43;;;;;;;6.22;5.15;;;;;;;;;;2062158;28;20034;-73
2020/12/21 03:58:02;;;;;;;6.50;5.85;;;;;;;;;;2062894;28;20023;-73
2020/12/21 03:59:21;;;;;;;6.35;5.43;;;;;;;;;;2064479;28;20482;-73
2020/12/21 04:00:40;;;;;;;7.28;5.30;;;;;;;;;;2060922;28;20438;-73
2020/12/21 04:01:59;;;;;;;5.75;4.80;;;;;;;;;;2061610;28;20027;-72
2020/12/21 04:03:18;;;;;;;6.70;5.25;;;;;;;;;;2062406;28;20054;-73
2020/12/21 04:04:37;;;;;;;5.53;5.03;;;;;;;;;;2061819;28;20034;-73
2020/12/21 04:05:56;;;;;;;7.15;5.50;;;;;;;;;;2064602;28;20026;-72
2020/12/21 04:07:15;;;;;;;9.93;5.50;;;;;;;;;;2063204;28;20034;-72
2020/12/21 04:08:34;;;;;;;7.28;6.13;;;;;;;;;;2063855;28;20026;-73
2020/12/21 04:09:53;;;;;;;9.40;6.13;;;;;;;;;;2064832;28;20101;-72
2020/12/21 04:11:12;;;;;;;5.60;5.10;;;;;;;;;;2063680;28;20069;-73
2020/12/21 04:12:31;;;;;;;6.32;5.40;;;;;;;;;;2063750;28;20030;-73
2020/12/21 04:13:50;;;;;;;7.50;5.72;;;;;;;;;;2063223;28;20125;-73
2020/12/21 04:15:09;;;;;;;7.32;5.55;;;;;;;;;;2062903;28;20022;-72
2020/12/21 04:16:27;;;;;;;6.65;5.63;;;;;;;;;;2065336;28;20371;-73
2020/12/21 04:17:46;;;;;;;7.07;5.43;;;;;;;;;;2061079;28;20035;-72
2020/12/21 04:19:05;;;;;;;6.30;5.57;;;;;;;;;;2062827;28;20034;-72
2020/12/21 04:20:24;;;;;;;6.10;5.50;;;;;;;;;;2064706;28;20027;-74
2020/12/21 04:21:43;;;;;;;10.55;6.05;;;;;;;;;;2064098;28;20034;-73
2020/12/21 04:23:02;;;;;;;6.30;5.18;;;;;;;;;;2062066;28;20120;-73
2020/12/21 04:24:22;;;;;;;6.72;5.65;;;;;;;;;;2063053;28;20042;-73
2020/12/21 04:25:41;;;;;;;7.22;5.18;;;;;;;;;;2063391;28;20026;-73
2020/12/21 04:27:00;;;;;;;8.52;5.80;;;;;;;;;;2064216;28;20030;-72
2020/12/21 04:28:19;;;;;;;5.10;4.60;;;;;;;;;;2063941;28;20030;-73
2020/12/21 04:29:38;;;;;;;7.40;5.25;;;;;;;;;;2064047;28;20030;-74
2020/12/21 04:31:00;;;;;;;5.63;5.07;;;;;;;;;;2063352;28;20022;-73
2020/12/21 04:32:18;;;;;;;6.60;4.35;;;;;;;;;;2062684;28;20066;-73
2020/12/21 04:33:37;;;;;;;4.88;4.32;;;;;;;;;;2061717;28;20034;-74
2020/12/21 04:34:56;;;;;;;5.03;4.53;;;;;;;;;;2064025;28;20031;-72
2020/12/21 04:36:15;;;;;;;5.20;4.80;;;;;;;;;;2065123;28;20022;-73
2020/12/21 04:37:34;;;;;;;5.50;5.00;;;;;;;;;;2064890;28;20486;-73
2020/12/21 04:38:53;;;;;;;6.03;5.00;;;;;;;;;;2064857;28;20031;-73
2020/12/21 04:40:12;;;;;;;6.65;4.90;;;;;;;;;;2062574;28;20046;-74
2020/12/21 04:41:31;;;;;;;5.85;4.60;;;;;;;;;;2064136;28;20030;-73
2020/12/21 04:42:50;;;;;;;5.32;4.30;;;;;;;;;;2057928;28;20023;-73
2020/12/21 04:44:09;;;;;;;5.20;4.70;;;;;;;;;;2062599;28;20482;-73
2020/12/21 04:45:28;;;;;;;5.13;4.63;;;;;;;;;;2063512;28;20030;-72
2020/12/21 04:46:48;;;;;;;5.47;4.80;;;;;;;;;;2063042;28;20117;-73
2020/12/21 04:48:07;;;;;;;5.72;5.22;;;;;;;;;;2062056;28;20062;-73
2020/12/21 04:49:26;;;;;;;7.10;4.78;;;;;;;;;;2060873;28;20485;-73
2020/12/21 04:50:45;;;;;;;6.07;4.80;;;;;;;;;;2063125;28;20026;-73
2020/12/21 04:52:05;;;;;;;5.53;4.90;;;;;;;;;;2062259;28;20027;-73
2020/12/21 04:53:24;;;;;;;5.22;4.65;;;;;;;;;;2062874;28;20026;-72
2020/12/21 04:54:42;;;;;;;6.30;4.78;;;;;;;;;;2064304;28;20061;-72
2020/12/21 04:56:01;;;;;;;5.85;5.25;;;;;;;;;;2064944;28;20026;-74
2020/12/21 04:57:20;;;;;;;5.90;4.80;;;;;;;;;;2064583;28;20018;-73
2020/12/21 04:58:43;;;;;;;5.28;4.38;;;;;;;;;;2062192;28;20027;-74
2020/12/21 05:00:03;;;;;;;5.82;4.15;;;;;;;;;;2062392;28;20109;-74
2020/12/21 05:01:22;;;;;;;4.15;3.85;;;;;;;;;;2054112;28;20105;-73
2020/12/21 05:02:41;;;;;;;4.88;3.83;;;;;;;;;;2059718;28;20035;-75
2020/12/21 05:04:00;;;;;;;4.82;4.32;;;;;;;;;;2060211;28;20038;-74
2020/12/21 05:05:39;;;;;;;4.70;3.88;;;;;;;;;;2059902;28;20463;-74
2020/12/21 05:06:58;;;;;;;4.70;3.67;;;;;;;;;;2064137;28;20026;-73
2020/12/21 05:08:21;;;;;;;6.97;4.22;;;;;;;;;;2061353;28;20026;-74
2020/12/21 05:09:40;;;;;;;4.57;4.18;;;;;;;;;;2058888;28;20027;-73
2020/12/21 05:11:01;;;;;;;6.05;4.18;;;;;;;;;;2061161;28;20102;-73
2020/12/21 05:12:19;;;;;;;4.45;4.05;;;;;;;;;;2056017;28;20030;-74
2020/12/21 05:13:38;;;;;;;4.50;4.05;;;;;;;;;;2059194;28;20023;-73
2020/12/21 05:14:57;;;;;;;5.38;4.82;;;;;;;;;;2058405;28;20961;-74
2020/12/21 05:16:23;;;;;;;6.63;4.72;;;;;;;;;;2068641;28;20023;-74
2020/12/21 05:17:42;;;;;;;4.78;4.00;;;;;;;;;;2060233;28;20023;-73
2020/12/21 05:19:01;;;;;;;4.22;3.53;;;;;;;;;;2064606;28;20030;-75
2020/12/21 05:20:20;;;;;;;5.45;4.28;;;;;;;;;;2062179;28;20380;-74
2020/12/21 05:21:40;;;;;;;4.65;4.25;;;;;;;;;;2061736;28;20034;-74
2020/12/21 05:22:59;;;;;;;5.15;4.57;;;;;;;;;;2058934;28;20112;-73
2020/12/21 05:24:20;;;;;;;4.63;4.10;;;;;;;;;;2064382;28;20058;-74
2020/12/21 05:25:39;;;;;;;4.32;3.92;;;;;;;;;;2062464;28;20086;-74
2020/12/21 05:27:07;;;;;;;5.88;4.07;;;;;;;;;;2061380;28;20038;-73
2020/12/21 05:28:31;;;;;;;8.07;4.72;;;;;;;;;;2061609;28;20038;-74
2020/12/21 05:29:53;;;;;;;4.35;3.90;;;;;;;;;;2057535;28;20054;-74
2020/12/21 05:31:12;;;;;;;6.38;4.30;;;;;;;;;;2060005;28;20038;-74
2020/12/21 05:32:31;;;;;;;4.95;3.58;;;;;;;;;;2064028;28;20807;-74
2020/12/21 05:33:50;;;;;;;4.90;3.90;;;;;;;;;;2056822;28;20027;-73
2020/12/21 05:35:10;;;;;;;6.72;4.03;;;;;;;;;;2058580;28;20030;-74
2020/12/21 05:36:30;;;;;;;4.78;3.65;;;;;;;;;;2062417;28;20026;-74
2020/12/21 05:37:49;;;;;;;4.45;4.05;;;;;;;;;;2061592;28;20027;-73
2020/12/21 05:39:08;;;;;;;7.88;4.28;;;;;;;;;;2063020;28;20030;-73
2020/12/21 05:40:27;;;;;;;5.68;4.03;;;;;;;;;;2061085;28;20154;-73
2020/12/21 05:41:46;;;;;;;3.60;3.30;;;;;;;;;;2059980;28;20452;-73
2020/12/21 05:43:05;;;;;;;9.27;3.67;;;;;;;;;;2061124;28;20038;-73
2020/12/21 05:44:24;;;;;;;5.88;4.68;;;;;;;;;;2060071;28;20030;-73
2020/12/21 05:45:43;;;;;;;5.05;4.07;;;;;;;;;;2056919;28;20047;-72
2020/12/21 05:47:04;;;;;;;7.07;4.28;;;;;;;;;;2063110;28;20022;-73
2020/12/21 05:48:23;;;;;;;7.45;4.22;;;;;;;;;;2061518;28;20042;-73
2020/12/21 05:49:50;;;;;;;4.97;4.47;;;;;;;;;;2061742;28;20042;-72
2020/12/21 05:51:10;;;;;;;6.10;4.28;;;;;;;;;;2056688;28;20407;-73
2020/12/21 05:52:33;;;;;;;9.20;4.10;;;;;;;;;;2061230;28;19913;-73
2020/12/21 05:53:53;;;;;;;5.63;3.78;;;;;;;;;;2064077;28;20026;-73
2020/12/21 05:55:12;;;;;;;6.00;4.40;;;;;;;;;;2063914;28;20022;-73
2020/12/21 05:56:32;;;;;;;5.25;4.60;;;;;;;;;;2062480;28;20030;-72
2020/12/21 05:57:51;;;;;;;6.25;4.70;;;;;;;;;;2062589;28;20022;-67
2020/12/21 05:59:13;;;;;;;4.82;4.30;;;;;;;;;;2061579;28;20034;-67
2020/12/21 06:00:32;;;;;;;9.43;4.25;;;;;;;;;;2060864;28;20445;-67
2020/12/21 06:01:52;;;;;;;4.22;3.80;;;;;;;;;;2064156;28;20456;-67
2020/12/21 06:03:15;;;;;;;4.47;4.07;;;;;;;;;;2061553;28;20034;-66
2020/12/21 06:04:40;;;;;;;4.60;3.67;;;;;;;;;;2062872;28;20026;-66
2020/12/21 06:06:06;;;;;;;4.82;3.40;;;;;;;;;;2063701;28;20070;-66
2020/12/21 06:07:27;;;;;;;4.15;3.78;;;;;;;;;;2058263;28;20130;-67
2020/12/21 06:08:51;;;;;;;5.45;3.58;;;;;;;;;;2057557;28;20034;-66
2020/12/21 06:10:10;;;;;;;3.67;3.25;;;;;;;;;;2064648;28;20056;-66
2020/12/21 06:11:34;;;;;;;3.88;3.58;;;;;;;;;;2064822;28;20027;-66
2020/12/21 06:12:53;;;;;;;4.72;3.50;;;;;;;;;;2060459;28;20027;-67
2020/12/21 06:14:13;;;;;;;3.90;3.50;;;;;;;;;;2061016;28;20023;-67
2020/12/21 06:15:32;;;;;;;5.25;3.17;;;;;;;;;;2063372;28;20019;-66
2020/12/21 06:16:51;;;;;;;5.70;3.25;;;;;;;;;;2062583;28;20059;-67
2020/12/21 06:18:10;;;;;;;4.15;3.35;;;;;;;;;;2061604;28;20031;-66
2020/12/21 06:19:29;;;;;;;5.05;3.47;;;;;;;;;;2063342;28;20019;-66
2020/12/21 06:20:48;;;;;;;4.22;3.47;;;;;;;;;;2063266;28;20470;-66
2020/12/21 06:22:07;;;;;;;4.32;3.70;;;;;;;;;;2060378;28;20030;-66
2020/12/21 06:23:32;;;;;;;4.65;3.75;;;;;;;;;;2062677;28;20030;-67
2020/12/21 06:24:51;;;;;;;4.13;3.72;;;;;;;;;;2064212;28;20027;-68
2020/12/21 06:26:10;;;;;;;4.22;3.50;;;;;;;;;;2062219;28;20026;-67
2020/12/21 06:27:36;;;;;;;4.13;3.40;;;;;;;;;;2061367;28;20051;-67
2020/12/21 06:28:59;;;;;;;5.63;3.40;;;;;;;;;;2063774;28;20065;-67
2020/12/21 06:30:28;;;;;;;5.35;3.20;;;;;;;;;;2062630;28;20038;-66
2020/12/21 06:31:47;;;;;;;3.90;3.60;;;;;;;;;;2059277;28;20030;-67
2020/12/21 06:33:06;;;;;;;4.85;3.95;;;;;;;;;;2060638;28;20030;-67
2020/12/21 06:34:28;;;;;;;6.55;3.55;;;;;;;;;;2061212;28;20065;-67
2020/12/21 06:35:47;;;;;;;4.43;3.22;;;;;;;;;;2061442;28;20026;-67
2020/12/21 06:37:08;;;;;;;4.47;3.22;;;;;;;;;;2063010;28;20074;-67
2020/12/21 06:38:27;;;;;;;7.38;3.67;;;;;;;;;;2058373;28;20113;-67
2020/12/21 06:40:01;;;;;;;3.95;3.50;;;;;;;;;;2062908;28;20395;-66
2020/12/21 06:41:24;;;;;;;4.32;3.33;;;;;;;;;;2071465;28;20045;-68
2020/12/21 06:42:43;;;;;;;3.63;3.33;;;;;;;;;;2066615;28;20421;-67
2020/12/21 06:44:04;;;;;;;5.85;3.20;;;;;;;;;;2064544;28;20034;-66
2020/12/21 06:45:32;;;;;;;4.50;3.55;;;;;;;;;;2061859;28;20078;-67
2020/12/21 06:46:51;;;;;;;3.67;3.10;;;;;;;;;;2065172;28;20058;-67
2020/12/21 06:48:21;;;;;;;4.32;3.03;;;;;;;;;;2062263;28;20039;-67
2020/12/21 06:49:39;;;;;;;3.53;3.08;;;;;;;;;;2060539;28;20471;-67
2020/12/21 06:50:58;;;;;;;3.90;2.83;;;;;;;;;;2051489;28;20031;-67
2020/12/21 06:52:17;;;;;;;3.13;2.80;;;;;;;;;;2060566;28;20034;-67
2020/12/21 06:53:36;;;;;;;3.13;2.80;;;;;;;;;;2061470;28;20027;-68
2020/12/21 06:54:55;;;;;;;5.30;3.50;;;;;;;;;;2059327;28;20380;-67
2020/12/21 06:56:14;;;;;;;2.92;2.70;;;;;;;;;;2062272;28;20031;-67
2020/12/21 06:57:33;;;;;;;6.43;2.78;;;;;;;;;;2060783;28;20031;-68
2020/12/21 06:58:52;;;;;;;3.10;2.75;;;;;;;;;;2063187;28;20126;-67
2020/12/21 07:00:12;;;;;;;2.75;2.55;;;;;;;;;;2062554;28;20106;-67
2020/12/21 07:01:30;;;;;;;3.28;2.90;;;;;;;;;;2064352;28;20153;-67
2020/12/21 07:02:49;;;;;;;4.00;3.45;;;;;;;;;;2060719;28;20035;-67
2020/12/21 07:04:12;;;;;;;4.93;2.88;;;;;;;;;;2065216;28;20022;-67
2020/12/21 07:05:31;;;;;;;3.30;3.00;;;;;;;;;;2063928;28;20382;-67
2020/12/21 07:06:51;;;;;;;3.65;3.30;;;;;;;;;;2065225;28;20027;-67
2020/12/21 07:08:10;;;;;;;6.60;3.70;;;;;;;;;;2063881;28;20022;-68
2020/12/21 07:09:30;;;;;;;3.92;2.85;;;;;;;;;;2060133;28;20030;-68
2020/12/21 07:10:55;;;;;;;16.02;4.88;;;;;;;;;;2062267;28;20018;-68
2020/12/21 07:12:14;;;;;;;4.85;2.90;;;;;;;;;;2064504;28;20038;-67
2020/12/21 07:13:33;;;;;;;2.83;2.63;;;;;;;;;;2059535;28;20019;-67
2020/12/21 07:14:52;;;;;;;5.38;2.90;;;;;;;;;;2062871;28;20014;-69
2020/12/21 07:16:11;;;;;;;3.38;3.08;;;;;;;;;;2064694;28;20038;-67
2020/12/21 07:17:31;;;;;;;3.15;2.78;;;;;;;;;;2064165;28;20038;-67
2020/12/21 07:18:50;;;;;;;4.25;2.92;;;;;;;;;;2061774;28;20105;-67
2020/12/21 07:20:09;;;;;;;3.65;2.90;;;;;;;;;;2061579;28;20022;-68
2020/12/21 07:21:28;;;;;;;3.65;2.95;;;;;;;;;;2065385;28;20022;-69
2020/12/21 07:22:47;;;;;;;2.72;2.22;;;;;;;;;;2064848;28;20026;-68
2020/12/21 07:24:09;;;;;;;2.90;2.70;;;;;;;;;;2059556;28;20062;-68
2020/12/21 07:25:28;;;;;;;3.78;3.20;;;;;;;;;;2065022;28;20096;-67
2020/12/21 07:26:47;;;;;;;6.30;2.67;;;;;;;;;;2063394;28;20097;-68
2020/12/21 07:28:05;;;;;;;5.78;3.40;;;;;;;;;;2062388;28;20042;-68
2020/12/21 07:29:30;;;;;;;3.08;2.78;;;;;;;;;;2059931;28;20517;-68
2020/12/21 07:30:50;;;;;;;4.38;2.90;;;;;;;;;;2061478;28;20023;-67
2020/12/21 07:32:09;;;;;;;3.67;2.85;;;;;;;;;;2064915;28;20026;-67
2020/12/21 07:33:28;;;;;;;3.20;2.90;;;;;;;;;;2062034;28;20105;-66
2020/12/21 07:34:52;;;;;;;3.83;3.53;;;;;;;;;;2061278;28;20026;-67
2020/12/21 07:36:11;;;;;;;3.70;3.38;;;;;;;;;;2063845;28;20022;-67
2020/12/21 07:37:31;;;;;;;3.72;3.28;;;;;;;;;;2064798;28;20026;-68
2020/12/21 07:38:50;;;;;;;5.03;2.90;;;;;;;;;;2064212;28;20035;-68
2020/12/21 07:40:19;;;;;;;3.47;2.72;;;;;;;;;;2060931;28;20030;-68
2020/12/21 07:41:40;;;;;;;3.30;2.80;;;;;;;;;;2061217;28;20045;-67
2020/12/21 07:43:01;;;;;;;4.47;3.15;;;;;;;;;;2062371;28;20066;-68
2020/12/21 07:44:28;;;;;;;5.10;3.03;;;;;;;;;;2064038;28;20026;-67
2020/12/21 07:45:49;;;;;;;3.35;3.10;;;;;;;;;;2062761;28;20042;-68
2020/12/21 07:47:10;;;;;;;5.57;3.00;;;;;;;;;;2061269;28;20479;-68
2020/12/21 07:48:30;;;;;;;3.53;3.03;;;;;;;;;;2060516;28;20031;-67
2020/12/21 07:49:49;;;;;;;5.03;3.55;;;;;;;;;;2062755;28;20459;-67
2020/12/21 07:51:08;;;;;;;5.70;2.80;;;;;;;;;;2064856;28;20034;-69
2020/12/21 07:52:27;;;;;;;3.00;2.65;;;;;;;;;;2064494;28;20117;-69
2020/12/21 07:53:47;;;;;;;3.15;2.50;;;;;;;;;;2061704;28;20382;-68
2020/12/21 07:55:05;;;;;;;2.78;2.38;;;;;;;;;;2063754;28;20426;-68
2020/12/21 07:56:24;;;;;;;2.67;2.47;;;;;;;;;;2060612;28;20437;-70
2020/12/21 07:57:43;;;;;;;2.58;2.35;;;;;;;;;;2063696;28;20022;-68